sensor_id;sensor_type;location;lat;lon;timestamp;temperature;humidity
12977;DHT22;6553;48.412;9.514;2022-09-03T00:08:54;22.90;62.40
12977;DHT22;6553;48.412;9.514;2022-09-03T00:17:39;22.90;62.40
12977;DHT22;6553;48.412;9.514;2022-09-03T00:20:16;22.90;62.40
12977;DHT22;6553;48.412;9.514;2022-09-03T00:22:48;22.90;62.50
12977;DHT22;6553;48.412;9.514;2022-09-03T00:25:24;22.90;62.50
12977;DHT22;6553;48.412;9.514;2022-09-03T00:28:02;22.90;62.40
12977;DHT22;6553;48.412;9.514;2022-09-03T00:30:34;22.80;62.30
12977;DHT22;6553;48.412;9.514;2022-09-03T00:33:00;22.90;62.50
12977;DHT22;6553;48.412;9.514;2022-09-03T00:38:26;22.90;62.40
12977;DHT22;6553;48.412;9.514;2022-09-03T00:47:04;22.90;62.40
12977;DHT22;6553;48.412;9.514;2022-09-03T01:00:22;22.80;62.60
12977;DHT22;6553;48.412;9.514;2022-09-03T01:12:01;22.80;62.40
12977;DHT22;6553;48.412;9.514;2022-09-03T01:14:54;22.80;62.40
12977;DHT22;6553;48.412;9.514;2022-09-03T01:24:01;22.80;62.40
12977;DHT22;6553;48.412;9.514;2022-09-03T01:30:06;22.80;62.30
12977;DHT22;6553;48.412;9.514;2022-09-03T01:33:02;22.80;62.50
12977;DHT22;6553;48.412;9.514;2022-09-03T01:35:45;22.80;62.50
12977;DHT22;6553;48.412;9.514;2022-09-03T01:38:33;22.80;62.40
12977;DHT22;6553;48.412;9.514;2022-09-03T01:44:46;22.90;62.60
12977;DHT22;6553;48.412;9.514;2022-09-03T01:56:28;22.80;62.50
12977;DHT22;6553;48.412;9.514;2022-09-03T01:59:08;22.80;62.50
12977;DHT22;6553;48.412;9.514;2022-09-03T02:01:44;22.80;63.30
12977;DHT22;6553;48.412;9.514;2022-09-03T02:04:22;22.80;62.50
12977;DHT22;6553;48.412;9.514;2022-09-03T02:06:53;22.80;62.50
12977;DHT22;6553;48.412;9.514;2022-09-03T02:09:22;22.80;62.50
12977;DHT22;6553;48.412;9.514;2022-09-03T02:11:57;22.80;62.60
12977;DHT22;6553;48.412;9.514;2022-09-03T02:14:34;22.80;62.60
12977;DHT22;6553;48.412;9.514;2022-09-03T02:17:02;22.80;62.60
12977;DHT22;6553;48.412;9.514;2022-09-03T02:19:30;22.80;62.60
12977;DHT22;6553;48.412;9.514;2022-09-03T02:21:57;22.80;62.50
12977;DHT22;6553;48.412;9.514;2022-09-03T02:24:24;22.80;62.60
12977;DHT22;6553;48.412;9.514;2022-09-03T02:26:52;22.80;62.50
12977;DHT22;6553;48.412;9.514;2022-09-03T02:29:19;22.80;62.60
12977;DHT22;6553;48.412;9.514;2022-09-03T02:31:46;22.80;62.50
12977;DHT22;6553;48.412;9.514;2022-09-03T02:34:11;22.80;62.50
12977;DHT22;6553;48.412;9.514;2022-09-03T02:36:43;22.80;62.50
12977;DHT22;6553;48.412;9.514;2022-09-03T02:39:11;22.70;62.50
12977;DHT22;6553;48.412;9.514;2022-09-03T02:41:38;22.80;62.60
12977;DHT22;6553;48.412;9.514;2022-09-03T02:44:14;22.70;62.50
12977;DHT22;6553;48.412;9.514;2022-09-03T02:47:03;22.70;62.50
12977;DHT22;6553;48.412;9.514;2022-09-03T02:49:31;22.70;62.50
12977;DHT22;6553;48.412;9.514;2022-09-03T02:52:06;22.80;62.70
12977;DHT22;6553;48.412;9.514;2022-09-03T02:54:35;22.80;62.70
12977;DHT22;6553;48.412;9.514;2022-09-03T02:57:15;22.80;62.70
12977;DHT22;6553;48.412;9.514;2022-09-03T02:59:42;22.70;62.50
12977;DHT22;6553;48.412;9.514;2022-09-03T03:02:12;22.70;62.50
12977;DHT22;6553;48.412;9.514;2022-09-03T03:04:38;22.70;62.60
12977;DHT22;6553;48.412;9.514;2022-09-03T03:07:05;22.70;62.50
12977;DHT22;6553;48.412;9.514;2022-09-03T03:09:31;22.80;62.60
12977;DHT22;6553;48.412;9.514;2022-09-03T03:11:57;22.70;62.60
12977;DHT22;6553;48.412;9.514;2022-09-03T03:14:23;22.70;62.60
12977;DHT22;6553;48.412;9.514;2022-09-03T03:16:49;22.70;62.70
12977;DHT22;6553;48.412;9.514;2022-09-03T03:19:16;22.70;62.60
12977;DHT22;6553;48.412;9.514;2022-09-03T03:21:42;22.70;62.60
12977;DHT22;6553;48.412;9.514;2022-09-03T03:24:09;22.70;62.70
12977;DHT22;6553;48.412;9.514;2022-09-03T03:26:35;22.80;62.80
12977;DHT22;6553;48.412;9.514;2022-09-03T03:29:01;22.70;62.70
12977;DHT22;6553;48.412;9.514;2022-09-03T03:31:31;22.70;62.80
12977;DHT22;6553;48.412;9.514;2022-09-03T03:34:00;22.70;62.70
12977;DHT22;6553;48.412;9.514;2022-09-03T03:36:29;22.70;62.70
12977;DHT22;6553;48.412;9.514;2022-09-03T03:38:59;22.80;62.80
12977;DHT22;6553;48.412;9.514;2022-09-03T03:43:58;22.70;62.70
12977;DHT22;6553;48.412;9.514;2022-09-03T03:46:33;22.70;62.70
12977;DHT22;6553;48.412;9.514;2022-09-03T03:49:00;22.70;62.70
12977;DHT22;6553;48.412;9.514;2022-09-03T03:51:27;22.70;62.70
12977;DHT22;6553;48.412;9.514;2022-09-03T03:53:55;22.70;62.70
12977;DHT22;6553;48.412;9.514;2022-09-03T03:56:22;22.70;62.70
12977;DHT22;6553;48.412;9.514;2022-09-03T03:58:51;22.70;62.90
12977;DHT22;6553;48.412;9.514;2022-09-03T04:01:23;22.70;62.80
12977;DHT22;6553;48.412;9.514;2022-09-03T04:03:51;22.70;62.80
12977;DHT22;6553;48.412;9.514;2022-09-03T04:06:20;22.70;62.90
12977;DHT22;6553;48.412;9.514;2022-09-03T04:08:47;22.70;62.90
12977;DHT22;6553;48.412;9.514;2022-09-03T04:11:16;22.70;62.90
12977;DHT22;6553;48.412;9.514;2022-09-03T04:13:45;22.70;63.00
12977;DHT22;6553;48.412;9.514;2022-09-03T04:16:14;22.70;63.00
12977;DHT22;6553;48.412;9.514;2022-09-03T04:18:44;22.70;63.00
12977;DHT22;6553;48.412;9.514;2022-09-03T04:21:31;22.70;63.00
12977;DHT22;6553;48.412;9.514;2022-09-03T04:23:57;22.70;63.00
12977;DHT22;6553;48.412;9.514;2022-09-03T04:26:28;22.70;63.00
12977;DHT22;6553;48.412;9.514;2022-09-03T04:28:56;22.70;63.00
12977;DHT22;6553;48.412;9.514;2022-09-03T04:31:22;22.70;63.10
12977;DHT22;6553;48.412;9.514;2022-09-03T04:33:48;22.70;63.10
12977;DHT22;6553;48.412;9.514;2022-09-03T04:36:20;22.70;63.10
12977;DHT22;6553;48.412;9.514;2022-09-03T04:38:49;22.70;63.20
12977;DHT22;6553;48.412;9.514;2022-09-03T04:41:23;22.70;63.20
12977;DHT22;6553;48.412;9.514;2022-09-03T04:43:54;22.70;63.20
12977;DHT22;6553;48.412;9.514;2022-09-03T04:46:24;22.70;63.20
12977;DHT22;6553;48.412;9.514;2022-09-03T04:48:53;22.70;63.30
12977;DHT22;6553;48.412;9.514;2022-09-03T04:51:22;22.70;63.30
12977;DHT22;6553;48.412;9.514;2022-09-03T04:53:57;22.70;63.30
12977;DHT22;6553;48.412;9.514;2022-09-03T04:56:27;22.70;63.30
12977;DHT22;6553;48.412;9.514;2022-09-03T04:59:03;22.60;63.30
12977;DHT22;6553;48.412;9.514;2022-09-03T05:01:32;22.70;63.40
12977;DHT22;6553;48.412;9.514;2022-09-03T05:03:59;22.60;63.30
12977;DHT22;6553;48.412;9.514;2022-09-03T05:06:26;22.70;63.50
12977;DHT22;6553;48.412;9.514;2022-09-03T05:08:54;22.60;63.50
12977;DHT22;6553;48.412;9.514;2022-09-03T05:11:22;22.60;63.50
12977;DHT22;6553;48.412;9.514;2022-09-03T05:13:51;22.60;63.50
12977;DHT22;6553;48.412;9.514;2022-09-03T05:16:20;22.60;63.60
12977;DHT22;6553;48.412;9.514;2022-09-03T05:18:51;22.60;63.60
12977;DHT22;6553;48.412;9.514;2022-09-03T05:21:19;22.60;63.70
12977;DHT22;6553;48.412;9.514;2022-09-03T05:23:47;22.60;63.70
12977;DHT22;6553;48.412;9.514;2022-09-03T05:26:26;22.60;63.60
12977;DHT22;6553;48.412;9.514;2022-09-03T05:28:56;22.60;63.70
12977;DHT22;6553;48.412;9.514;2022-09-03T05:31:25;22.60;63.70
12977;DHT22;6553;48.412;9.514;2022-09-03T05:33:54;22.60;63.70
12977;DHT22;6553;48.412;9.514;2022-09-03T05:36:24;22.60;63.70
12977;DHT22;6553;48.412;9.514;2022-09-03T05:38:59;22.60;63.70
12977;DHT22;6553;48.412;9.514;2022-09-03T05:41:26;22.60;63.70
12977;DHT22;6553;48.412;9.514;2022-09-03T05:43:54;22.60;63.70
12977;DHT22;6553;48.412;9.514;2022-09-03T05:46:23;22.60;63.70
12977;DHT22;6553;48.412;9.514;2022-09-03T05:48:56;22.60;63.70
12977;DHT22;6553;48.412;9.514;2022-09-03T05:51:26;22.60;63.70
12977;DHT22;6553;48.412;9.514;2022-09-03T05:53:53;22.60;63.60
12977;DHT22;6553;48.412;9.514;2022-09-03T05:56:22;22.60;63.70
12977;DHT22;6553;48.412;9.514;2022-09-03T05:58:51;22.60;63.60
12977;DHT22;6553;48.412;9.514;2022-09-03T06:01:21;22.60;63.70
12977;DHT22;6553;48.412;9.514;2022-09-03T06:04:00;22.60;63.70
12977;DHT22;6553;48.412;9.514;2022-09-03T06:06:29;22.60;63.70
12977;DHT22;6553;48.412;9.514;2022-09-03T06:08:58;22.60;63.70
12977;DHT22;6553;48.412;9.514;2022-09-03T06:11:27;22.60;63.70
12977;DHT22;6553;48.412;9.514;2022-09-03T06:13:58;22.60;63.70
12977;DHT22;6553;48.412;9.514;2022-09-03T06:16:30;22.60;63.70
12977;DHT22;6553;48.412;9.514;2022-09-03T06:18:57;22.60;63.70
12977;DHT22;6553;48.412;9.514;2022-09-03T06:21:23;22.60;63.70
12977;DHT22;6553;48.412;9.514;2022-09-03T06:23:50;22.60;63.70
12977;DHT22;6553;48.412;9.514;2022-09-03T06:26:17;22.60;63.70
12977;DHT22;6553;48.412;9.514;2022-09-03T06:28:44;22.60;63.70
12977;DHT22;6553;48.412;9.514;2022-09-03T06:31:17;22.60;63.70
12977;DHT22;6553;48.412;9.514;2022-09-03T06:33:45;22.70;63.80
12977;DHT22;6553;48.412;9.514;2022-09-03T06:36:14;22.70;63.80
12977;DHT22;6553;48.412;9.514;2022-09-03T06:38:44;22.70;63.80
12977;DHT22;6553;48.412;9.514;2022-09-03T06:41:14;22.70;63.80
12977;DHT22;6553;48.412;9.514;2022-09-03T06:43:46;22.70;63.80
12977;DHT22;6553;48.412;9.514;2022-09-03T06:46:17;22.70;63.80
12977;DHT22;6553;48.412;9.514;2022-09-03T06:48:47;22.70;63.80
12977;DHT22;6553;48.412;9.514;2022-09-03T06:51:20;22.70;63.80
12977;DHT22;6553;48.412;9.514;2022-09-03T06:53:50;22.70;63.80
12977;DHT22;6553;48.412;9.514;2022-09-03T06:56:22;22.70;63.80
12977;DHT22;6553;48.412;9.514;2022-09-03T06:58:55;22.80;63.90
12977;DHT22;6553;48.412;9.514;2022-09-03T07:01:27;22.70;63.80
12977;DHT22;6553;48.412;9.514;2022-09-03T07:03:57;22.70;63.70
12977;DHT22;6553;48.412;9.514;2022-09-03T07:06:27;22.70;63.70
12977;DHT22;6553;48.412;9.514;2022-09-03T07:08:55;22.70;63.80
12977;DHT22;6553;48.412;9.514;2022-09-03T07:11:23;22.70;63.80
12977;DHT22;6553;48.412;9.514;2022-09-03T07:13:52;22.80;63.90
12977;DHT22;6553;48.412;9.514;2022-09-03T07:16:21;22.80;63.90
12977;DHT22;6553;48.412;9.514;2022-09-03T07:18:48;22.80;63.90
12977;DHT22;6553;48.412;9.514;2022-09-03T07:21:18;22.80;64.00
12977;DHT22;6553;48.412;9.514;2022-09-03T07:23:52;22.80;64.10
12977;DHT22;6553;48.412;9.514;2022-09-03T07:26:24;22.80;64.10
12977;DHT22;6553;48.412;9.514;2022-09-03T07:28:55;22.80;64.20
12977;DHT22;6553;48.412;9.514;2022-09-03T07:33:58;22.80;64.80
12977;DHT22;6553;48.412;9.514;2022-09-03T07:36:37;22.90;66.60
12977;DHT22;6553;48.412;9.514;2022-09-03T07:39:05;22.90;67.00
12977;DHT22;6553;48.412;9.514;2022-09-03T07:41:31;23.00;67.10
12977;DHT22;6553;48.412;9.514;2022-09-03T07:43:58;23.00;67.70
12977;DHT22;6553;48.412;9.514;2022-09-03T07:46:32;23.10;67.70
12977;DHT22;6553;48.412;9.514;2022-09-03T07:49:00;22.90;67.30
12977;DHT22;6553;48.412;9.514;2022-09-03T07:51:29;22.90;67.10
12977;DHT22;6553;48.412;9.514;2022-09-03T07:53:58;22.90;67.50
12977;DHT22;6553;48.412;9.514;2022-09-03T07:56:27;22.90;68.00
12977;DHT22;6553;48.412;9.514;2022-09-03T07:58:56;22.90;68.50
12977;DHT22;6553;48.412;9.514;2022-09-03T08:01:24;23.00;69.00
12977;DHT22;6553;48.412;9.514;2022-09-03T08:03:52;23.00;69.30
12977;DHT22;6553;48.412;9.514;2022-09-03T08:06:21;23.00;69.20
12977;DHT22;6553;48.412;9.514;2022-09-03T08:08:57;22.90;68.60
12977;DHT22;6553;48.412;9.514;2022-09-03T08:11:25;22.90;68.60
12977;DHT22;6553;48.412;9.514;2022-09-03T08:13:56;22.80;69.00
12977;DHT22;6553;48.412;9.514;2022-09-03T08:16:29;22.90;69.50
12977;DHT22;6553;48.412;9.514;2022-09-03T08:18:56;22.90;69.60
12977;DHT22;6553;48.412;9.514;2022-09-03T08:21:23;23.00;69.60
12977;DHT22;6553;48.412;9.514;2022-09-03T08:23:52;23.00;69.40
12977;DHT22;6553;48.412;9.514;2022-09-03T08:26:20;23.10;69.40
12977;DHT22;6553;48.412;9.514;2022-09-03T08:28:47;23.00;69.30
12977;DHT22;6553;48.412;9.514;2022-09-03T08:31:16;23.00;69.30
12977;DHT22;6553;48.412;9.514;2022-09-03T08:33:49;23.10;69.30
12977;DHT22;6553;48.412;9.514;2022-09-03T08:36:27;23.10;69.20
12977;DHT22;6553;48.412;9.514;2022-09-03T08:38:57;23.10;69.10
12977;DHT22;6553;48.412;9.514;2022-09-03T08:44:19;23.10;68.90
12977;DHT22;6553;48.412;9.514;2022-09-03T08:47:33;23.10;68.90
12977;DHT22;6553;48.412;9.514;2022-09-03T08:50:08;23.10;68.90
12977;DHT22;6553;48.412;9.514;2022-09-03T08:55:54;23.10;68.80
12977;DHT22;6553;48.412;9.514;2022-09-03T08:58:26;23.20;68.90
12977;DHT22;6553;48.412;9.514;2022-09-03T09:06:35;23.20;68.70
12977;DHT22;6553;48.412;9.514;2022-09-03T09:09:21;23.20;68.60
12977;DHT22;6553;48.412;9.514;2022-09-03T09:14:32;23.30;68.60
12977;DHT22;6553;48.412;9.514;2022-09-03T09:22:37;23.20;68.40
12977;DHT22;6553;48.412;9.514;2022-09-03T09:25:12;23.30;68.50
12977;DHT22;6553;48.412;9.514;2022-09-03T09:27:49;23.20;68.40
12977;DHT22;6553;48.412;9.514;2022-09-03T09:30:20;23.30;68.40
12977;DHT22;6553;48.412;9.514;2022-09-03T09:32:46;23.30;68.50
12977;DHT22;6553;48.412;9.514;2022-09-03T09:35:13;23.20;68.40
12977;DHT22;6553;48.412;9.514;2022-09-03T09:37:52;23.30;68.50
12977;DHT22;6553;48.412;9.514;2022-09-03T09:40:31;23.30;68.50
12977;DHT22;6553;48.412;9.514;2022-09-03T09:43:05;23.30;68.50
12977;DHT22;6553;48.412;9.514;2022-09-03T09:45:38;23.30;68.50
12977;DHT22;6553;48.412;9.514;2022-09-03T09:48:10;23.30;68.40
12977;DHT22;6553;48.412;9.514;2022-09-03T09:51:09;23.40;68.60
12977;DHT22;6553;48.412;9.514;2022-09-03T09:53:45;23.40;68.50
12977;DHT22;6553;48.412;9.514;2022-09-03T09:56:21;23.40;68.60
12977;DHT22;6553;48.412;9.514;2022-09-03T09:58:49;23.40;68.50
12977;DHT22;6553;48.412;9.514;2022-09-03T10:01:21;23.40;68.60
12977;DHT22;6553;48.412;9.514;2022-09-03T10:03:59;23.40;68.60
12977;DHT22;6553;48.412;9.514;2022-09-03T10:06:32;23.40;68.60
12977;DHT22;6553;48.412;9.514;2022-09-03T10:09:20;23.40;68.60
12977;DHT22;6553;48.412;9.514;2022-09-03T10:11:51;23.40;68.60
12977;DHT22;6553;48.412;9.514;2022-09-03T10:20:25;23.40;68.60
12977;DHT22;6553;48.412;9.514;2022-09-03T10:23:00;23.40;68.60
12977;DHT22;6553;48.412;9.514;2022-09-03T10:25:47;23.40;68.60
12977;DHT22;6553;48.412;9.514;2022-09-03T10:28:36;23.40;68.60
12977;DHT22;6553;48.412;9.514;2022-09-03T10:54:49;23.50;69.00
12977;DHT22;6553;48.412;9.514;2022-09-03T10:57:35;23.50;68.90
12977;DHT22;6553;48.412;9.514;2022-09-03T11:00:18;23.50;68.80
12977;DHT22;6553;48.412;9.514;2022-09-03T11:05:34;23.50;69.00
12977;DHT22;6553;48.412;9.514;2022-09-03T11:10:51;23.50;68.90
12977;DHT22;6553;48.412;9.514;2022-09-03T11:13:37;23.50;68.90
12977;DHT22;6553;48.412;9.514;2022-09-03T11:16:17;23.50;68.80
12977;DHT22;6553;48.412;9.514;2022-09-03T11:18:53;23.50;68.90
12977;DHT22;6553;48.412;9.514;2022-09-03T11:21:27;23.50;69.00
12977;DHT22;6553;48.412;9.514;2022-09-03T11:24:11;23.50;68.90
12977;DHT22;6553;48.412;9.514;2022-09-03T11:27:04;23.50;68.80
12977;DHT22;6553;48.412;9.514;2022-09-03T11:29:48;23.50;68.70
12977;DHT22;6553;48.412;9.514;2022-09-03T11:32:24;23.50;68.80
12977;DHT22;6553;48.412;9.514;2022-09-03T11:38:00;23.50;68.90
12977;DHT22;6553;48.412;9.514;2022-09-03T11:40:32;23.50;68.90
12977;DHT22;6553;48.412;9.514;2022-09-03T11:43:12;23.40;68.90
12977;DHT22;6553;48.412;9.514;2022-09-03T11:48:49;23.40;68.70
12977;DHT22;6553;48.412;9.514;2022-09-03T11:51:33;23.40;68.80
12977;DHT22;6553;48.412;9.514;2022-09-03T11:56:45;23.40;68.50
12977;DHT22;6553;48.412;9.514;2022-09-03T11:59:22;23.40;68.30
12977;DHT22;6553;48.412;9.514;2022-09-03T12:01:59;23.40;68.40
12977;DHT22;6553;48.412;9.514;2022-09-03T12:05:13;23.40;68.40
12977;DHT22;6553;48.412;9.514;2022-09-03T12:07:47;23.40;68.50
12977;DHT22;6553;48.412;9.514;2022-09-03T12:16:47;23.30;68.30
12977;DHT22;6553;48.412;9.514;2022-09-03T12:21:56;23.40;68.30
12977;DHT22;6553;48.412;9.514;2022-09-03T12:24:25;23.40;68.50
12977;DHT22;6553;48.412;9.514;2022-09-03T12:27:00;23.40;68.30
12977;DHT22;6553;48.412;9.514;2022-09-03T12:29:28;23.40;68.40
12977;DHT22;6553;48.412;9.514;2022-09-03T12:32:08;23.30;68.30
12977;DHT22;6553;48.412;9.514;2022-09-03T12:34:37;23.30;68.30
12977;DHT22;6553;48.412;9.514;2022-09-03T12:37:18;23.30;68.30
12977;DHT22;6553;48.412;9.514;2022-09-03T12:39:55;23.40;68.40
12977;DHT22;6553;48.412;9.514;2022-09-03T12:42:30;23.40;68.40
12977;DHT22;6553;48.412;9.514;2022-09-03T12:45:07;23.40;68.30
12977;DHT22;6553;48.412;9.514;2022-09-03T12:47:41;23.40;68.30
12977;DHT22;6553;48.412;9.514;2022-09-03T12:50:15;23.40;68.20
12977;DHT22;6553;48.412;9.514;2022-09-03T12:53:00;23.40;68.20
12977;DHT22;6553;48.412;9.514;2022-09-03T13:01:29;23.40;68.30
12977;DHT22;6553;48.412;9.514;2022-09-03T13:04:09;23.40;69.20
12977;DHT22;6553;48.412;9.514;2022-09-03T13:06:56;23.40;68.40
12977;DHT22;6553;48.412;9.514;2022-09-03T13:09:33;23.40;68.30
12977;DHT22;6553;48.412;9.514;2022-09-03T13:12:02;23.40;68.30
12977;DHT22;6553;48.412;9.514;2022-09-03T13:14:46;23.40;68.30
12977;DHT22;6553;48.412;9.514;2022-09-03T13:20:39;23.50;68.60
12977;DHT22;6553;48.412;9.514;2022-09-03T13:32:02;23.40;68.60
12977;DHT22;6553;48.412;9.514;2022-09-03T13:34:47;23.40;68.50
12977;DHT22;6553;48.412;9.514;2022-09-03T13:40:32;23.40;68.50
12977;DHT22;6553;48.412;9.514;2022-09-03T13:43:09;23.40;68.60
12977;DHT22;6553;48.412;9.514;2022-09-03T13:45:47;23.40;68.50
12977;DHT22;6553;48.412;9.514;2022-09-03T13:48:35;23.40;68.60
12977;DHT22;6553;48.412;9.514;2022-09-03T13:51:43;23.40;68.60
12977;DHT22;6553;48.412;9.514;2022-09-03T13:54:22;23.40;68.60
12977;DHT22;6553;48.412;9.514;2022-09-03T14:00:12;23.40;68.50
12977;DHT22;6553;48.412;9.514;2022-09-03T14:02:53;23.40;68.50
12977;DHT22;6553;48.412;9.514;2022-09-03T14:06:06;23.40;68.60
12977;DHT22;6553;48.412;9.514;2022-09-03T14:17:25;23.40;68.60
12977;DHT22;6553;48.412;9.514;2022-09-03T14:20:24;23.40;68.40
12977;DHT22;6553;48.412;9.514;2022-09-03T14:23:06;23.40;68.50
12977;DHT22;6553;48.412;9.514;2022-09-03T14:25:56;23.40;68.60
12977;DHT22;6553;48.412;9.514;2022-09-03T14:28:33;23.40;68.60
12977;DHT22;6553;48.412;9.514;2022-09-03T14:39:53;23.40;68.60
12977;DHT22;6553;48.412;9.514;2022-09-03T14:48:57;23.50;68.70
12977;DHT22;6553;48.412;9.514;2022-09-03T15:00:35;23.40;68.80
12977;DHT22;6553;48.412;9.514;2022-09-03T15:03:22;23.40;68.90
12977;DHT22;6553;48.412;9.514;2022-09-03T15:09:37;23.40;68.90
12977;DHT22;6553;48.412;9.514;2022-09-03T15:12:03;23.40;68.90
12977;DHT22;6553;48.412;9.514;2022-09-03T15:14:45;23.40;69.10
12977;DHT22;6553;48.412;9.514;2022-09-03T15:20:32;23.40;69.10
12977;DHT22;6553;48.412;9.514;2022-09-03T15:24:08;23.40;69.00
12977;DHT22;6553;48.412;9.514;2022-09-03T15:29:15;23.40;69.10
12977;DHT22;6553;48.412;9.514;2022-09-03T15:37:53;23.40;69.10
12977;DHT22;6553;48.412;9.514;2022-09-03T15:40:40;23.50;69.10
12977;DHT22;6553;48.412;9.514;2022-09-03T15:43:21;23.40;69.10
12977;DHT22;6553;48.412;9.514;2022-09-03T15:46:01;23.40;69.10
12977;DHT22;6553;48.412;9.514;2022-09-03T15:48:58;23.40;69.10
12977;DHT22;6553;48.412;9.514;2022-09-03T15:54:16;23.40;69.20
12977;DHT22;6553;48.412;9.514;2022-09-03T15:57:05;23.40;69.10
12977;DHT22;6553;48.412;9.514;2022-09-03T16:00:01;23.40;69.10
12977;DHT22;6553;48.412;9.514;2022-09-03T16:02:45;23.40;69.10
12977;DHT22;6553;48.412;9.514;2022-09-03T16:08:22;23.40;69.20
12977;DHT22;6553;48.412;9.514;2022-09-03T16:22:45;23.40;69.30
12977;DHT22;6553;48.412;9.514;2022-09-03T16:25:28;23.40;69.30
12977;DHT22;6553;48.412;9.514;2022-09-03T16:37:14;23.40;69.40
12977;DHT22;6553;48.412;9.514;2022-09-03T16:45:11;23.40;69.40
12977;DHT22;6553;48.412;9.514;2022-09-03T16:51:04;23.40;69.40
12977;DHT22;6553;48.412;9.514;2022-09-03T17:00:03;23.40;69.40
12977;DHT22;6553;48.412;9.514;2022-09-03T17:15:31;23.40;69.50
12977;DHT22;6553;48.412;9.514;2022-09-03T17:21:08;23.40;69.60
12977;DHT22;6553;48.412;9.514;2022-09-03T17:27:59;23.40;69.50
12977;DHT22;6553;48.412;9.514;2022-09-03T17:30:14;23.40;69.60
12977;DHT22;6553;48.412;9.514;2022-09-03T17:42:15;23.30;69.60
12977;DHT22;6553;48.412;9.514;2022-09-03T17:45:00;23.30;69.60
12977;DHT22;6553;48.412;9.514;2022-09-03T17:50:26;23.30;69.50
12977;DHT22;6553;48.412;9.514;2022-09-03T17:52:59;23.40;69.80
12977;DHT22;6553;48.412;9.514;2022-09-03T17:56:05;23.30;69.70
12977;DHT22;6553;48.412;9.514;2022-09-03T17:58:42;23.30;69.60
12977;DHT22;6553;48.412;9.514;2022-09-03T18:01:23;23.30;69.70
12977;DHT22;6553;48.412;9.514;2022-09-03T18:04:21;23.30;69.70
12977;DHT22;6553;48.412;9.514;2022-09-03T18:07:23;23.30;69.60
12977;DHT22;6553;48.412;9.514;2022-09-03T18:13:20;23.30;69.70
12977;DHT22;6553;48.412;9.514;2022-09-03T18:16:06;23.30;69.60
12977;DHT22;6553;48.412;9.514;2022-09-03T18:18:44;23.30;69.70
12977;DHT22;6553;48.412;9.514;2022-09-03T18:21:20;23.30;69.80
12977;DHT22;6553;48.412;9.514;2022-09-03T18:24:27;23.20;69.60
12977;DHT22;6553;48.412;9.514;2022-09-03T18:27:31;23.30;69.80
12977;DHT22;6553;48.412;9.514;2022-09-03T18:30:19;23.30;69.70
12977;DHT22;6553;48.412;9.514;2022-09-03T18:33:04;23.30;69.80
12977;DHT22;6553;48.412;9.514;2022-09-03T18:35:48;23.30;69.70
12977;DHT22;6553;48.412;9.514;2022-09-03T18:38:37;23.30;69.70
12977;DHT22;6553;48.412;9.514;2022-09-03T18:54:24;23.20;69.70
12977;DHT22;6553;48.412;9.514;2022-09-03T18:57:25;23.20;69.70
12977;DHT22;6553;48.412;9.514;2022-09-03T19:00:18;23.20;69.60
12977;DHT22;6553;48.412;9.514;2022-09-03T19:03:15;23.20;69.70
12977;DHT22;6553;48.412;9.514;2022-09-03T19:16:06;23.20;69.60
12977;DHT22;6553;48.412;9.514;2022-09-03T19:25:22;23.20;69.60
12977;DHT22;6553;48.412;9.514;2022-09-03T19:37:45;23.20;69.60
12977;DHT22;6553;48.412;9.514;2022-09-03T19:46:50;23.20;69.70
12977;DHT22;6553;48.412;9.514;2022-09-03T19:50:21;23.10;69.60
12977;DHT22;6553;48.412;9.514;2022-09-03T19:53:13;23.20;69.70
12977;DHT22;6553;48.412;9.514;2022-09-03T19:56:07;23.10;69.60
12977;DHT22;6553;48.412;9.514;2022-09-03T19:58:58;23.10;69.70
12977;DHT22;6553;48.412;9.514;2022-09-03T20:01:47;23.10;69.60
12977;DHT22;6553;48.412;9.514;2022-09-03T20:04:35;23.10;69.60
12977;DHT22;6553;48.412;9.514;2022-09-03T20:07:24;23.10;69.60
12977;DHT22;6553;48.412;9.514;2022-09-03T20:10:12;23.10;69.60
12977;DHT22;6553;48.412;9.514;2022-09-03T20:30:06;23.10;69.50
12977;DHT22;6553;48.412;9.514;2022-09-03T20:50:20;23.10;69.60
12977;DHT22;6553;48.412;9.514;2022-09-03T20:55:45;23.10;69.60
12977;DHT22;6553;48.412;9.514;2022-09-03T20:58:41;23.10;69.60
12977;DHT22;6553;48.412;9.514;2022-09-03T21:09:44;23.10;69.60
12977;DHT22;6553;48.412;9.514;2022-09-03T21:15:32;23.10;69.70
12977;DHT22;6553;48.412;9.514;2022-09-03T21:26:48;23.00;70.30
12977;DHT22;6553;48.412;9.514;2022-09-03T21:29:31;23.00;69.60
12977;DHT22;6553;48.412;9.514;2022-09-03T21:32:07;23.10;69.70
12977;DHT22;6553;48.412;9.514;2022-09-03T21:35:00;23.00;69.50
12977;DHT22;6553;48.412;9.514;2022-09-03T21:37:35;23.00;69.60
12977;DHT22;6553;48.412;9.514;2022-09-03T21:40:06;23.00;69.50
12977;DHT22;6553;48.412;9.514;2022-09-03T21:42:40;23.10;69.70
12977;DHT22;6553;48.412;9.514;2022-09-03T21:45:13;23.00;69.50
12977;DHT22;6553;48.412;9.514;2022-09-03T21:47:54;23.00;69.60
12977;DHT22;6553;48.412;9.514;2022-09-03T21:56:23;23.00;69.60
12977;DHT22;6553;48.412;9.514;2022-09-03T22:01:54;23.00;69.60
12977;DHT22;6553;48.412;9.514;2022-09-03T22:04:27;23.00;69.60
12977;DHT22;6553;48.412;9.514;2022-09-03T22:12:35;23.00;69.60
12977;DHT22;6553;48.412;9.514;2022-09-03T22:15:08;23.00;69.60
12977;DHT22;6553;48.412;9.514;2022-09-03T22:17:47;23.00;69.60
12977;DHT22;6553;48.412;9.514;2022-09-03T22:20:34;23.00;69.50
12977;DHT22;6553;48.412;9.514;2022-09-03T22:23:11;23.00;69.60
12977;DHT22;6553;48.412;9.514;2022-09-03T22:25:54;23.00;69.60
12977;DHT22;6553;48.412;9.514;2022-09-03T22:28:29;23.00;69.60
12977;DHT22;6553;48.412;9.514;2022-09-03T22:31:26;23.00;69.60
12977;DHT22;6553;48.412;9.514;2022-09-03T22:34:54;23.00;69.60
12977;DHT22;6553;48.412;9.514;2022-09-03T22:37:03;23.00;69.60
12977;DHT22;6553;48.412;9.514;2022-09-03T22:39:40;23.00;69.60
12977;DHT22;6553;48.412;9.514;2022-09-03T22:56:35;23.00;69.60
12977;DHT22;6553;48.412;9.514;2022-09-03T22:59:22;23.00;69.50
12977;DHT22;6553;48.412;9.514;2022-09-03T23:02:12;22.90;69.40
12977;DHT22;6553;48.412;9.514;2022-09-03T23:05:04;22.90;69.40
12977;DHT22;6553;48.412;9.514;2022-09-03T23:10:25;23.00;69.60
12977;DHT22;6553;48.412;9.514;2022-09-03T23:13:08;22.90;69.40
12977;DHT22;6553;48.412;9.514;2022-09-03T23:15:39;22.90;69.40
12977;DHT22;6553;48.412;9.514;2022-09-03T23:18:12;22.90;69.40
12977;DHT22;6553;48.412;9.514;2022-09-03T23:21:14;22.90;69.40
12977;DHT22;6553;48.412;9.514;2022-09-03T23:24:12;22.90;69.50
12977;DHT22;6553;48.412;9.514;2022-09-03T23:26:49;22.90;69.50
12977;DHT22;6553;48.412;9.514;2022-09-03T23:29:37;22.90;69.50
12977;DHT22;6553;48.412;9.514;2022-09-03T23:32:06;22.90;69.50
12977;DHT22;6553;48.412;9.514;2022-09-03T23:34:34;22.90;69.50
12977;DHT22;6553;48.412;9.514;2022-09-03T23:40:19;22.90;69.50
12977;DHT22;6553;48.412;9.514;2022-09-03T23:54:34;22.90;69.50
12977;DHT22;6553;48.412;9.514;2022-09-03T23:57:34;22.90;69.50
